createdAt,value
2022-11-19T00:02:00.585Z,24.75
2022-11-19T00:04:27.954Z,15.48
2022-11-19T00:06:55.279Z,19.25
2022-11-19T00:09:23.959Z,19.08
2022-11-19T00:12:08.917Z,16.33
2022-11-19T00:14:36.483Z,19.15
2022-11-19T00:17:03.774Z,16.67
2022-11-19T00:19:31.112Z,18.27
2022-11-19T00:21:58.418Z,18.58
2022-11-19T00:24:29.567Z,14.98
2022-11-19T00:26:56.960Z,21.48
2022-11-19T00:29:24.592Z,17.00
2022-11-19T00:31:51.884Z,15.77
2022-11-19T00:34:19.183Z,15.43
2022-11-19T00:36:46.472Z,16.40
2022-11-19T00:39:13.788Z,16.90
2022-11-19T00:41:42.418Z,18.40
2022-11-19T00:44:09.781Z,14.93
2022-11-19T00:46:37.078Z,14.80
2022-11-19T00:49:04.555Z,17.20
2022-11-19T00:51:31.850Z,14.98
2022-11-19T00:53:59.403Z,14.80
2022-11-19T00:56:27.851Z,13.13
2022-11-19T00:58:56.980Z,21.55
2022-11-19T01:01:25.277Z,15.18
2022-11-19T01:03:53.084Z,18.42
2022-11-19T01:06:21.255Z,18.00
2022-11-19T01:08:49.042Z,18.27
2022-11-19T01:11:18.209Z,14.77
2022-11-19T01:13:45.773Z,17.67
2022-11-19T01:16:15.439Z,16.58
2022-11-19T01:18:43.368Z,18.15
2022-11-19T01:21:11.938Z,24.75
2022-11-19T01:23:39.352Z,21.25
2022-11-19T01:26:06.742Z,18.17
2022-11-19T01:28:34.244Z,17.05
2022-11-19T01:31:01.590Z,17.38
2022-11-19T01:33:30.252Z,19.75
2022-11-19T01:35:58.147Z,16.00
2022-11-19T01:38:25.472Z,22.08
2022-11-19T01:40:53.223Z,13.50
2022-11-19T01:43:20.503Z,14.35
2022-11-19T01:45:49.011Z,19.73
2022-11-19T01:48:19.914Z,17.05
2022-11-19T01:50:50.340Z,17.60
2022-11-19T01:53:19.150Z,19.92
2022-11-19T01:55:47.485Z,20.00
2022-11-19T01:58:16.219Z,20.48
2022-11-19T02:00:43.592Z,16.20
2022-11-19T02:03:11.395Z,17.02
2022-11-19T02:05:39.016Z,19.08
2022-11-19T02:08:08.724Z,16.70
2022-11-19T02:10:40.096Z,22.33
2022-11-19T02:13:11.687Z,20.90
2022-11-19T02:15:42.295Z,22.92
2022-11-19T02:18:23.282Z,20.10
2022-11-19T02:20:56.359Z,20.70
2022-11-19T02:23:50.914Z,20.63
2022-11-19T02:26:31.612Z,16.85
2022-11-19T02:29:06.446Z,21.83
2022-11-19T02:34:03.806Z,21.52
2022-11-19T02:36:36.863Z,19.65
2022-11-19T02:39:05.665Z,18.88
2022-11-19T02:41:34.847Z,24.17
2022-11-19T02:44:21.284Z,19.75
2022-11-19T02:46:50.467Z,21.15
2022-11-19T02:49:20.854Z,23.63
2022-11-19T02:51:49.102Z,24.88
2022-11-19T02:54:17.160Z,25.70
2022-11-19T02:56:48.959Z,24.05
2022-11-19T02:59:34.558Z,27.92
2022-11-19T03:02:20.373Z,32.15
2022-11-19T03:04:49.075Z,25.55
2022-11-19T03:07:17.999Z,32.22
2022-11-19T03:09:47.240Z,28.35
2022-11-19T03:12:19.158Z,22.80
2022-11-19T03:15:08.072Z,27.65
2022-11-19T03:17:40.080Z,23.85
2022-11-19T03:20:16.419Z,26.15
2022-11-19T03:22:50.571Z,24.20
2022-11-19T03:25:21.202Z,23.00
2022-11-19T03:27:50.182Z,21.63
2022-11-19T03:30:18.727Z,22.75
2022-11-19T03:32:49.141Z,19.50
2022-11-19T03:35:20.455Z,16.88
2022-11-19T03:37:50.578Z,17.02
2022-11-19T03:40:19.055Z,14.65
2022-11-19T03:42:48.140Z,15.00
2022-11-19T03:45:17.076Z,20.73
2022-11-19T03:47:46.055Z,20.40
2022-11-19T03:50:17.184Z,22.65
2022-11-19T03:52:45.883Z,20.63
2022-11-19T03:55:13.427Z,18.90
2022-11-19T03:57:40.911Z,21.13
2022-11-19T04:00:09.011Z,17.38
2022-11-19T04:02:36.416Z,21.75
2022-11-19T04:05:03.723Z,14.40
2022-11-19T04:07:31.071Z,19.30
2022-11-19T04:09:59.779Z,15.15
2022-11-19T04:12:27.056Z,12.75
2022-11-19T04:14:54.381Z,11.25
2022-11-19T04:17:21.679Z,11.20
2022-11-19T04:19:49.019Z,11.40
2022-11-19T04:22:16.304Z,15.35
2022-11-19T04:24:43.598Z,18.40
2022-11-19T04:27:12.300Z,20.35
2022-11-19T04:29:39.665Z,20.55
2022-11-19T04:32:06.927Z,18.35
2022-11-19T04:34:34.232Z,5.00
2022-11-19T04:37:01.529Z,4.25
2022-11-19T04:39:28.827Z,3.38
2022-11-19T04:41:56.145Z,2.97
2022-11-19T04:44:24.838Z,3.28
2022-11-19T04:46:52.145Z,5.63
2022-11-19T04:49:19.724Z,5.22
2022-11-19T04:51:47.320Z,3.60
2022-11-19T04:54:14.596Z,4.35
2022-11-19T04:56:41.935Z,5.55
2022-11-19T04:59:09.374Z,5.95
2022-11-19T05:01:38.072Z,4.57
2022-11-19T05:04:05.569Z,4.25
2022-11-19T05:06:33.333Z,5.60
2022-11-19T05:09:00.748Z,7.03
2022-11-19T05:11:28.084Z,6.55
2022-11-19T05:13:55.575Z,6.50
2022-11-19T05:16:22.856Z,6.45
2022-11-19T05:18:51.575Z,6.78
2022-11-19T05:21:18.903Z,5.57
2022-11-19T05:23:46.178Z,6.60
2022-11-19T05:26:13.451Z,7.50
2022-11-19T05:28:40.769Z,7.28
2022-11-19T05:31:08.350Z,7.97
2022-11-19T05:33:35.704Z,8.85
2022-11-19T05:36:04.511Z,8.27
2022-11-19T05:38:31.874Z,9.50
2022-11-19T05:40:59.213Z,9.95
2022-11-19T05:43:27.002Z,10.05
2022-11-19T05:45:54.282Z,10.75
2022-11-19T05:48:21.570Z,9.82
2022-11-19T05:50:48.848Z,13.23
2022-11-19T05:53:17.667Z,11.95
2022-11-19T05:55:44.955Z,13.50
2022-11-19T05:58:13.599Z,14.55
2022-11-19T06:00:40.941Z,14.05
2022-11-19T06:03:08.306Z,15.35
2022-11-19T06:05:40.020Z,16.63
2022-11-19T06:08:07.514Z,17.27
2022-11-19T06:10:36.154Z,20.17
2022-11-19T06:13:03.457Z,18.88
2022-11-19T06:15:30.804Z,21.02
2022-11-19T06:17:58.122Z,22.40
2022-11-19T06:20:25.389Z,22.90
2022-11-19T06:22:52.723Z,23.77
2022-11-19T06:25:20.063Z,27.58
2022-11-19T06:27:48.704Z,28.63
2022-11-19T06:30:16.545Z,30.67
2022-11-19T06:32:43.836Z,29.73
2022-11-19T06:35:13.128Z,31.48
2022-11-19T06:37:41.500Z,28.48
2022-11-19T06:40:09.296Z,31.80
2022-11-19T06:42:39.483Z,27.63
2022-11-19T06:45:09.702Z,28.35
2022-11-19T06:47:37.582Z,28.17
2022-11-19T06:50:05.199Z,33.30
2022-11-19T06:52:32.536Z,31.40
2022-11-19T06:54:59.826Z,32.50
2022-11-19T06:57:27.538Z,30.92
2022-11-19T06:59:54.854Z,36.30
2022-11-19T07:02:23.517Z,41.42
2022-11-19T07:04:50.861Z,41.17
2022-11-19T07:07:18.178Z,45.80
2022-11-19T07:09:45.531Z,44.03
2022-11-19T07:12:12.897Z,47.83
2022-11-19T07:14:40.209Z,46.15
2022-11-19T07:17:07.492Z,46.60
2022-11-19T07:19:36.162Z,47.97
2022-11-19T07:22:03.447Z,45.85
2022-11-19T07:24:30.794Z,50.50
2022-11-19T07:26:58.096Z,48.08
2022-11-19T07:29:25.389Z,50.05
2022-11-19T07:31:53.272Z,50.22
2022-11-19T07:34:20.778Z,48.60
2022-11-19T07:36:49.933Z,47.05
2022-11-19T07:39:18.155Z,51.65
2022-11-19T07:42:03.291Z,45.95
2022-11-19T07:44:30.556Z,49.83
2022-11-19T07:46:57.971Z,47.53
2022-11-19T07:49:25.966Z,47.53
2022-11-19T07:51:54.878Z,44.58
2022-11-19T07:54:22.274Z,48.13
2022-11-19T07:56:49.704Z,51.50
2022-11-19T07:59:17.781Z,48.58
2022-11-19T08:01:45.458Z,48.38
2022-11-19T08:04:12.826Z,46.25
2022-11-19T08:06:40.146Z,50.67
2022-11-19T08:09:08.807Z,49.13
2022-11-19T08:11:36.182Z,49.38
2022-11-19T08:14:03.487Z,45.25
2022-11-19T08:16:50.320Z,46.97
2022-11-19T08:19:18.468Z,51.72
2022-11-19T08:21:47.120Z,51.88
2022-11-19T08:24:17.334Z,48.45
2022-11-19T08:26:45.118Z,44.00
2022-11-19T08:29:16.504Z,48.53
2022-11-19T08:31:44.577Z,46.55
2022-11-19T08:34:11.951Z,48.88
2022-11-19T08:36:39.689Z,44.80
2022-11-19T08:39:07.165Z,44.58
2022-11-19T08:41:52.988Z,48.33
2022-11-19T08:44:20.932Z,42.50
2022-11-19T08:46:48.671Z,40.72
2022-11-19T08:49:16.000Z,43.83
2022-11-19T08:51:43.336Z,38.10
2022-11-19T08:54:10.647Z,39.13
2022-11-19T08:56:39.284Z,39.67
2022-11-19T08:59:06.591Z,38.20
2022-11-19T09:01:33.935Z,35.42
2022-11-19T09:04:01.516Z,37.88
2022-11-19T09:06:28.840Z,37.85
2022-11-19T09:08:56.179Z,36.90
2022-11-19T09:11:23.867Z,38.75
2022-11-19T09:13:52.471Z,38.15
2022-11-19T09:16:19.767Z,39.33
2022-11-19T09:18:47.067Z,38.47
2022-11-19T09:21:14.512Z,37.58
2022-11-19T09:23:42.524Z,34.30
2022-11-19T09:26:10.531Z,33.05
2022-11-19T09:28:37.837Z,30.38
2022-11-19T09:31:08.109Z,28.13
2022-11-19T09:33:36.703Z,32.38
2022-11-19T09:36:04.049Z,31.88
2022-11-19T09:38:34.821Z,29.17
2022-11-19T09:41:12.128Z,31.13
2022-11-19T09:43:46.080Z,26.95
2022-11-19T09:46:17.335Z,25.45
2022-11-19T09:48:45.547Z,27.30
2022-11-19T09:51:14.530Z,25.00
2022-11-19T09:53:43.586Z,22.85
2022-11-19T09:56:14.591Z,24.60
2022-11-19T09:58:42.932Z,22.60
2022-11-19T10:01:13.249Z,24.27
2022-11-19T10:03:44.609Z,22.05
2022-11-19T10:06:20.199Z,23.98
2022-11-19T10:08:55.780Z,22.55
2022-11-19T10:11:30.578Z,23.13
2022-11-19T10:14:02.936Z,22.23
2022-11-19T10:16:37.447Z,20.55
2022-11-19T10:19:11.649Z,21.42
2022-11-19T10:21:42.591Z,20.77
2022-11-19T10:24:17.606Z,22.23
2022-11-19T10:26:47.794Z,22.70
2022-11-19T10:29:16.057Z,23.73
2022-11-19T10:31:45.174Z,21.13
2022-11-19T10:34:16.594Z,19.67
2022-11-19T10:36:45.491Z,22.05
2022-11-19T10:39:17.601Z,20.65
2022-11-19T10:41:47.654Z,18.50
2022-11-19T10:44:37.136Z,19.88
2022-11-19T10:47:05.190Z,19.08
2022-11-19T10:49:37.478Z,20.40
2022-11-19T10:52:04.882Z,18.45
2022-11-19T10:54:32.541Z,19.45
2022-11-19T10:57:01.295Z,18.75
2022-11-19T10:59:30.959Z,21.88
2022-11-19T11:01:59.481Z,17.45
2022-11-19T11:04:27.614Z,16.05
2022-11-19T11:06:57.828Z,18.15
2022-11-19T11:09:32.631Z,20.25
2022-11-19T11:14:54.834Z,19.40
2022-11-19T11:17:23.455Z,17.55
2022-11-19T11:19:58.556Z,18.85
2022-11-19T11:22:27.927Z,20.00
2022-11-19T11:24:55.391Z,17.52
2022-11-19T11:27:24.985Z,18.70
2022-11-19T11:30:05.012Z,17.42
2022-11-19T11:32:33.154Z,16.83
2022-11-19T11:35:05.269Z,18.10
2022-11-19T11:37:36.016Z,21.60
2022-11-19T11:40:03.398Z,18.40
2022-11-19T11:42:30.681Z,20.20
2022-11-19T11:44:58.716Z,19.83
2022-11-19T11:47:27.767Z,19.17
2022-11-19T11:50:02.646Z,18.63
2022-11-19T11:52:33.512Z,23.25
2022-11-19T11:55:03.270Z,19.60
2022-11-19T11:57:31.372Z,18.10
2022-11-19T11:59:58.780Z,16.42
2022-11-19T12:02:30.183Z,19.25
2022-11-19T12:04:59.120Z,20.45
2022-11-19T12:07:47.886Z,16.75
2022-11-19T12:10:22.511Z,17.92
2022-11-19T12:12:53.381Z,17.38
2022-11-19T12:15:24.716Z,17.25
2022-11-19T12:17:58.825Z,16.65
2022-11-19T12:20:31.139Z,18.23
2022-11-19T12:23:10.051Z,17.25
2022-11-19T12:25:41.148Z,17.75
2022-11-19T12:28:15.672Z,17.63
2022-11-19T12:30:48.033Z,17.85
2022-11-19T12:33:22.855Z,18.58
2022-11-19T12:35:56.728Z,17.83
2022-11-19T12:38:25.959Z,16.87
2022-11-19T12:40:58.147Z,17.42
2022-11-19T12:43:38.743Z,17.00
2022-11-19T12:46:10.096Z,21.15
2022-11-19T12:48:47.990Z,18.08
2022-11-19T12:51:19.991Z,16.77
2022-11-19T12:54:06.729Z,17.45
2022-11-19T12:56:42.668Z,17.25
2022-11-19T12:59:15.304Z,16.65
2022-11-19T13:01:44.544Z,15.88
2022-11-19T13:04:15.269Z,16.50
2022-11-19T13:06:45.491Z,18.25
2022-11-19T13:09:16.313Z,18.20
2022-11-19T13:11:46.672Z,16.40
2022-11-19T13:14:17.711Z,15.65
2022-11-19T13:16:45.475Z,17.75
2022-11-19T13:19:19.520Z,17.23
2022-11-19T13:21:48.837Z,16.90
2022-11-19T13:24:21.941Z,18.05
2022-11-19T13:26:51.270Z,16.55
2022-11-19T13:29:26.475Z,16.98
2022-11-19T13:31:55.367Z,18.15
2022-11-19T13:34:24.836Z,16.25
2022-11-19T13:36:59.227Z,17.30
2022-11-19T13:39:29.717Z,17.80
2022-11-19T13:42:17.272Z,17.20
2022-11-19T13:44:44.703Z,17.60
2022-11-19T13:47:15.602Z,18.52
2022-11-19T13:49:44.724Z,19.55
2022-11-19T13:52:18.438Z,20.70
2022-11-19T13:54:46.001Z,18.77
2022-11-19T13:57:26.430Z,16.98
2022-11-19T13:59:57.399Z,20.80
2022-11-19T14:02:37.962Z,20.85
2022-11-19T14:05:24.069Z,17.00
2022-11-19T14:07:59.724Z,18.00
2022-11-19T14:10:31.294Z,16.98
2022-11-19T14:13:07.900Z,19.58
2022-11-19T14:16:02.557Z,16.88
2022-11-19T14:18:54.372Z,19.03
2022-11-19T14:21:55.361Z,18.05
2022-11-19T14:24:59.423Z,20.98
2022-11-19T14:27:26.965Z,19.52
2022-11-19T14:29:57.499Z,18.70
2022-11-19T14:32:35.184Z,17.85
2022-11-19T14:35:32.463Z,18.25
2022-11-19T14:38:06.769Z,20.85
2022-11-19T14:40:35.050Z,18.95
2022-11-19T14:43:36.551Z,21.10
2022-11-19T14:46:33.852Z,17.90
2022-11-19T14:49:04.579Z,17.60
2022-11-19T14:51:34.445Z,16.95
2022-11-19T14:54:04.243Z,17.45
2022-11-19T14:56:32.382Z,18.85
2022-11-19T14:59:04.432Z,19.80
2022-11-19T15:01:32.091Z,17.88
2022-11-19T15:04:00.459Z,19.05
2022-11-19T15:06:29.490Z,19.08
2022-11-19T15:08:58.971Z,18.88
2022-11-19T15:11:46.267Z,18.67
2022-11-19T15:14:36.829Z,20.15
2022-11-19T15:17:07.182Z,16.23
2022-11-19T15:19:38.247Z,19.85
2022-11-19T15:22:24.246Z,18.55
2022-11-19T15:25:03.497Z,18.38
2022-11-19T15:27:39.948Z,17.35
2022-11-19T15:30:10.392Z,18.42
2022-11-19T15:32:46.742Z,18.65
2022-11-19T15:35:32.858Z,17.70
2022-11-19T15:38:03.449Z,17.98
2022-11-19T15:40:34.008Z,21.02
2022-11-19T15:43:06.324Z,18.25
2022-11-19T15:45:37.507Z,20.77
2022-11-19T15:48:11.246Z,17.55
2022-11-19T15:50:38.834Z,20.00
2022-11-19T15:53:15.646Z,20.10
2022-11-19T15:55:50.149Z,18.73
2022-11-19T15:58:19.262Z,20.13
2022-11-19T16:00:46.931Z,18.08
2022-11-19T16:03:14.316Z,20.98
2022-11-19T16:05:46.329Z,19.73
2022-11-19T16:10:47.112Z,20.58
2022-11-19T16:13:40.807Z,19.38
2022-11-19T16:16:32.360Z,21.38
2022-11-19T16:18:59.747Z,21.20
2022-11-19T16:21:28.470Z,20.23
2022-11-19T16:24:13.458Z,19.75
2022-11-19T16:26:41.857Z,19.95
2022-11-19T16:29:16.479Z,18.27
2022-11-19T16:31:43.799Z,17.40
2022-11-19T16:34:15.168Z,23.25
2022-11-19T16:36:47.035Z,18.45
2022-11-19T16:39:14.603Z,16.42
2022-11-19T16:42:04.779Z,19.52
2022-11-19T16:44:34.399Z,22.08
2022-11-19T16:47:04.940Z,20.15
2022-11-19T16:49:32.969Z,21.38
2022-11-19T16:52:00.511Z,20.50
2022-11-19T16:54:44.301Z,20.70
2022-11-19T16:57:12.462Z,20.77
2022-11-19T16:59:41.216Z,22.35
2022-11-19T17:02:14.896Z,20.42
2022-11-19T17:07:12.767Z,18.50
2022-11-19T17:09:44.222Z,23.02
2022-11-19T17:12:27.047Z,21.60
2022-11-19T17:14:57.057Z,23.08
2022-11-19T17:17:40.049Z,22.23
2022-11-19T17:20:26.615Z,24.17
2022-11-19T17:22:54.075Z,25.25
2022-11-19T17:25:21.393Z,27.40
2022-11-19T17:27:51.189Z,24.42
2022-11-19T17:30:22.189Z,25.40
2022-11-19T17:32:51.505Z,23.20
2022-11-19T17:35:32.278Z,24.00
2022-11-19T17:37:59.764Z,25.42
2022-11-19T17:40:27.110Z,26.55
2022-11-19T17:43:12.041Z,24.55
2022-11-19T17:45:40.728Z,23.17
2022-11-19T17:48:14.705Z,26.35
2022-11-19T17:50:42.048Z,26.20
2022-11-19T17:53:09.356Z,26.10
2022-11-19T17:55:36.779Z,26.30
2022-11-19T17:58:04.098Z,24.83
2022-11-19T18:00:31.507Z,28.17
2022-11-19T18:03:03.032Z,25.15
2022-11-19T18:05:33.489Z,25.75
2022-11-19T18:08:00.814Z,25.48
2022-11-19T18:10:28.319Z,25.20
2022-11-19T18:12:55.744Z,24.15
2022-11-19T18:15:23.068Z,22.92
2022-11-19T18:17:50.409Z,24.85
2022-11-19T18:20:19.106Z,24.45
2022-11-19T18:22:47.589Z,26.15
2022-11-19T18:25:17.231Z,23.73
2022-11-19T18:27:44.820Z,24.02
2022-11-19T18:30:12.730Z,21.88
2022-11-19T18:32:40.242Z,23.55
2022-11-19T18:35:13.153Z,21.95
2022-11-19T18:37:41.819Z,23.63
2022-11-19T18:40:09.662Z,19.70
2022-11-19T18:42:37.478Z,25.75
2022-11-19T18:45:04.196Z,22.27
2022-11-19T18:47:31.543Z,21.58
2022-11-19T18:49:59.008Z,21.17
2022-11-19T18:52:26.340Z,21.88
2022-11-19T18:54:55.052Z,22.90
2022-11-19T18:57:22.395Z,21.25
2022-11-19T18:59:49.742Z,23.65
2022-11-19T19:02:17.127Z,23.75
2022-11-19T19:04:49.723Z,22.38
2022-11-19T19:07:18.384Z,22.60
2022-11-19T19:09:45.774Z,20.45
2022-11-19T19:12:19.501Z,23.65
2022-11-19T19:14:48.059Z,21.80
2022-11-19T19:17:16.262Z,23.40
2022-11-19T19:19:43.564Z,19.63
2022-11-19T19:22:10.878Z,20.00
2022-11-19T19:24:38.232Z,25.38
2022-11-19T19:27:05.984Z,23.77
2022-11-19T19:29:34.676Z,24.85
2022-11-19T19:32:02.146Z,22.38
2022-11-19T19:34:29.477Z,24.02
2022-11-19T19:36:56.950Z,26.58
2022-11-19T19:39:24.866Z,24.75
2022-11-19T19:41:52.923Z,24.33
2022-11-19T19:44:20.245Z,23.42
2022-11-19T19:46:49.355Z,21.27
2022-11-19T19:49:16.755Z,25.55
2022-11-19T19:51:44.236Z,22.58
2022-11-19T19:54:11.595Z,22.67
2022-11-19T19:56:39.628Z,24.15
2022-11-19T19:59:06.995Z,23.48
2022-11-19T20:01:37.297Z,22.52
2022-11-19T20:04:06.907Z,20.52
2022-11-19T20:06:35.224Z,21.23
2022-11-19T20:09:07.049Z,22.05
2022-11-19T20:11:36.239Z,22.77
2022-11-19T20:14:03.576Z,19.52
2022-11-19T20:16:31.680Z,22.75
2022-11-19T20:18:59.804Z,21.73
2022-11-19T20:21:31.346Z,21.00
2022-11-19T20:23:58.727Z,20.65
2022-11-19T20:26:27.687Z,26.13
2022-11-19T20:28:55.613Z,20.42
2022-11-19T20:31:22.956Z,21.67
2022-11-19T20:33:52.355Z,22.95
2022-11-19T20:36:19.740Z,21.60
2022-11-19T20:38:48.783Z,22.08
2022-11-19T20:41:34.558Z,23.02
2022-11-19T20:44:21.135Z,20.55
2022-11-19T20:46:49.160Z,24.00
2022-11-19T20:49:17.631Z,20.63
2022-11-19T20:51:45.487Z,22.75
2022-11-19T20:54:14.616Z,21.40
2022-11-19T20:56:41.974Z,21.35
2022-11-19T20:59:09.495Z,22.80
2022-11-19T21:01:36.940Z,22.52
2022-11-19T21:04:04.460Z,22.75
2022-11-19T21:06:32.077Z,21.95
2022-11-19T21:08:59.378Z,22.83
2022-11-19T21:11:28.040Z,25.17
2022-11-19T21:13:55.419Z,21.92
2022-11-19T21:16:23.526Z,24.77
2022-11-19T21:18:51.287Z,26.10
2022-11-19T21:21:19.276Z,24.00
2022-11-19T21:23:47.069Z,25.17
2022-11-19T21:26:16.277Z,23.45
2022-11-19T21:28:46.222Z,25.25
2022-11-19T21:31:13.688Z,25.45
2022-11-19T21:33:41.280Z,25.77
2022-11-19T21:36:08.988Z,26.88
2022-11-19T21:38:36.706Z,25.73
2022-11-19T21:41:04.403Z,23.45
2022-11-19T21:43:31.755Z,25.77
2022-11-19T21:46:00.377Z,26.38
2022-11-19T21:48:27.745Z,26.80
2022-11-19T21:50:55.157Z,26.75
2022-11-19T21:53:22.595Z,26.25
2022-11-19T21:55:50.163Z,24.92
2022-11-19T21:58:17.526Z,27.02
2022-11-19T22:00:46.815Z,25.92
2022-11-19T22:03:15.625Z,27.67
2022-11-19T22:05:43.299Z,28.27
2022-11-19T22:08:10.620Z,28.95
2022-11-19T22:10:42.782Z,27.90
2022-11-19T22:15:39.778Z,31.08
2022-11-19T22:18:07.197Z,24.98
2022-11-19T22:20:35.878Z,23.83
2022-11-19T22:23:03.204Z,26.38
2022-11-19T22:25:30.520Z,26.77
2022-11-19T22:27:57.800Z,25.95
2022-11-19T22:30:25.128Z,26.40
2022-11-19T22:32:53.296Z,27.05
2022-11-19T22:35:20.613Z,26.88
2022-11-19T22:37:49.259Z,26.77
2022-11-19T22:40:16.522Z,24.98
2022-11-19T22:42:43.859Z,24.42
2022-11-19T22:45:11.334Z,26.38
2022-11-19T22:47:38.652Z,27.08
2022-11-19T22:50:06.398Z,26.92
2022-11-19T22:52:33.699Z,26.17
2022-11-19T22:55:02.342Z,26.23
2022-11-19T22:57:29.668Z,25.10
2022-11-19T22:59:56.979Z,27.48
2022-11-19T23:02:24.349Z,25.10
2022-11-19T23:04:51.771Z,27.55
2022-11-19T23:07:19.101Z,29.80
2022-11-19T23:09:46.432Z,27.55
2022-11-19T23:12:32.630Z,25.60
2022-11-19T23:14:59.930Z,26.63
2022-11-19T23:17:27.216Z,32.88
2022-11-19T23:19:54.568Z,25.77
2022-11-19T23:22:21.893Z,28.10
2022-11-19T23:24:49.189Z,30.40
2022-11-19T23:27:21.986Z,27.77
2022-11-19T23:29:49.643Z,31.05
2022-11-19T23:32:16.951Z,30.33
2022-11-19T23:34:44.442Z,30.73
2022-11-19T23:37:11.767Z,27.85
2022-11-19T23:39:39.119Z,28.13
2022-11-19T23:42:06.490Z,28.88
2022-11-19T23:44:35.194Z,33.05
2022-11-19T23:47:03.298Z,25.60
2022-11-19T23:49:30.600Z,30.00
2022-11-19T23:51:57.943Z,28.30
2022-11-19T23:54:25.241Z,29.10
2022-11-19T23:56:52.560Z,29.38
2022-11-19T23:59:24.435Z,30.17
